Time;durP1;ratioP1;P1;durP2;ratioP2;P2;SDS_P1;SDS_P2;PMS_P1;PMS_P2;Temp;Humidity;BMP_temperature;BMP_pressure;BME280_temperature;BME280_humidity;BME280_pressure;Samples;Min_cycle;Max_cycle;Signal;HPM_P1;HPM_P2
2021/03/11 00:00:52;;;;;;;77.40;42.97;;;3.30;90.80;;;;;;2036429;28;20391;-78
2021/03/11 00:01:53;;;;;;;76.38;43.25;;;3.30;90.80;;;;;;2028715;29;20028;-77
2021/03/11 00:02:53;;;;;;;79.50;44.65;;;3.30;90.80;;;;;;2037021;29;20056;-78
2021/03/11 00:03:54;;;;;;;80.82;44.42;;;3.30;90.80;;;;;;2045389;29;20083;-78
2021/03/11 00:04:54;;;;;;;76.00;41.83;;;3.30;90.80;;;;;;2037112;29;20036;-77
2021/03/11 00:05:55;;;;;;;75.63;42.50;;;3.30;90.80;;;;;;2036035;28;20451;-76
2021/03/11 00:06:56;;;;;;;75.80;42.47;;;3.30;90.70;;;;;;2036344;29;20067;-77
2021/03/11 00:07:56;;;;;;;80.45;43.83;;;3.30;90.70;;;;;;2036383;28;20527;-78
2021/03/11 00:08:57;;;;;;;75.80;41.88;;;3.30;90.70;;;;;;2037726;28;20028;-79
2021/03/11 00:09:57;;;;;;;73.00;40.53;;;3.30;90.70;;;;;;2038736;28;20043;-77
2021/03/11 00:10:58;;;;;;;74.78;42.17;;;3.30;90.60;;;;;;2037929;28;20037;-79
2021/03/11 00:11:59;;;;;;;78.38;42.58;;;3.30;90.70;;;;;;2038895;29;20028;-79
2021/03/11 00:13:00;;;;;;;72.22;40.85;;;3.30;90.60;;;;;;2039275;28;20051;-78
2021/03/11 00:14:00;;;;;;;72.47;41.47;;;3.40;90.60;;;;;;2038491;29;20480;-78
2021/03/11 00:15:04;;;;;;;75.22;41.63;;;3.30;90.90;;;;;;2038841;28;20047;-79
2021/03/11 00:16:05;;;;;;;79.53;43.45;;;3.40;90.70;;;;;;2029813;28;20060;-79
2021/03/11 00:17:06;;;;;;;79.85;42.65;;;3.40;90.70;;;;;;2035880;29;20367;-76
2021/03/11 00:18:08;;;;;;;75.10;42.28;;;3.40;90.60;;;;;;2035889;29;20116;-77
2021/03/11 00:19:08;;;;;;;72.63;40.47;;;3.40;90.60;;;;;;2036055;29;20025;-75
2021/03/11 00:20:14;;;;;;;77.75;42.88;;;3.40;90.60;;;;;;2036410;28;20170;-77
2021/03/11 00:21:15;;;;;;;69.65;39.30;;;3.40;90.70;;;;;;2036389;28;20032;-77
2021/03/11 00:22:16;;;;;;;68.05;38.88;;;3.40;90.60;;;;;;2036420;28;20470;-78
2021/03/11 00:23:17;;;;;;;71.05;40.03;;;3.30;90.60;;;;;;2036426;28;20040;-77
2021/03/11 00:24:17;;;;;;;79.47;43.95;;;3.30;90.70;;;;;;2037565;28;20039;-78
2021/03/11 00:25:20;;;;;;;77.57;43.03;;;3.40;90.80;;;;;;2044857;28;20035;-77
2021/03/11 00:26:20;;;;;;;78.05;43.33;;;3.30;90.80;;;;;;2045246;29;20119;-78
2021/03/11 00:27:21;;;;;;;78.32;43.40;;;3.40;90.80;;;;;;2044106;28;20082;-78
2021/03/11 00:28:22;;;;;;;72.53;40.53;;;3.40;90.80;;;;;;2045497;29;20096;-77
2021/03/11 00:29:23;;;;;;;78.32;44.05;;;3.40;90.80;;;;;;2037717;29;20040;-77
2021/03/11 00:30:24;;;;;;;78.88;43.30;;;3.40;90.80;;;;;;2038277;29;20040;-78
2021/03/11 00:31:24;;;;;;;74.60;41.28;;;3.40;90.80;;;;;;2044921;28;20035;-78
2021/03/11 00:32:25;;;;;;;74.22;41.85;;;3.40;90.80;;;;;;2045768;29;20038;-77
2021/03/11 00:33:25;;;;;;;75.32;42.20;;;3.40;90.70;;;;;;2039738;28;20048;-76
2021/03/11 00:34:26;;;;;;;76.50;41.75;;;3.50;90.80;;;;;;2040270;28;20028;-76
2021/03/11 00:35:27;;;;;;;78.18;43.85;;;3.40;90.70;;;;;;2047657;28;20032;-76
2021/03/11 00:36:27;;;;;;;72.45;42.15;;;3.40;90.80;;;;;;2048218;29;20038;-76
2021/03/11 00:37:28;;;;;;;75.30;41.22;;;3.50;90.80;;;;;;2048184;28;20028;-76
2021/03/11 00:38:29;;;;;;;75.43;41.53;;;3.50;90.70;;;;;;2039615;28;20017;-77
2021/03/11 00:39:29;;;;;;;73.10;41.33;;;3.50;90.70;;;;;;2030447;29;20418;-77
2021/03/11 00:40:32;;;;;;;78.97;44.63;;;3.50;90.70;;;;;;2038424;29;20028;-79
2021/03/11 00:41:34;;;;;;;84.55;45.50;;;3.50;90.60;;;;;;2037388;29;20052;-79
2021/03/11 00:42:35;;;;;;;79.35;43.75;;;3.60;90.60;;;;;;2036101;28;20044;-77
2021/03/11 00:43:36;;;;;;;79.30;43.70;;;3.60;90.50;;;;;;2028266;29;20056;-79
2021/03/11 00:44:36;;;;;;;73.88;41.53;;;3.60;90.50;;;;;;2037392;29;20301;-77
2021/03/11 00:45:37;;;;;;;72.45;40.53;;;3.60;90.40;;;;;;2037309;28;20083;-77
2021/03/11 00:46:38;;;;;;;79.90;44.30;;;3.70;90.40;;;;;;2034605;28;20032;-77
2021/03/11 00:47:39;;;;;;;78.13;43.20;;;3.70;90.30;;;;;;2043524;28;20028;-77
2021/03/11 00:48:41;;;;;;;75.75;42.00;;;3.70;90.30;;;;;;2043217;29;20585;-77
2021/03/11 00:49:42;;;;;;;75.47;42.38;;;3.70;90.20;;;;;;2036667;29;20025;-77
2021/03/11 00:50:42;;;;;;;67.80;39.13;;;3.70;90.20;;;;;;2035258;28;20040;-78
2021/03/11 00:51:43;;;;;;;78.07;43.70;;;3.70;90.20;;;;;;2036051;29;20064;-78
2021/03/11 00:52:45;;;;;;;79.60;43.47;;;3.70;90.10;;;;;;2035635;28;20087;-78
2021/03/11 00:53:48;;;;;;;77.38;43.00;;;3.80;90.20;;;;;;2036225;29;20067;-78
2021/03/11 00:54:49;;;;;;;72.93;40.78;;;3.80;90.10;;;;;;2035756;28;20016;-77
2021/03/11 00:55:50;;;;;;;78.93;42.17;;;3.80;90.10;;;;;;2027794;29;20106;-77
2021/03/11 00:56:51;;;;;;;77.68;42.67;;;3.80;90.10;;;;;;2028147;29;20032;-78
2021/03/11 00:57:52;;;;;;;77.40;42.08;;;3.80;90.10;;;;;;2036043;29;20035;-79
2021/03/11 00:58:57;;;;;;;74.20;41.28;;;3.80;90.10;;;;;;2036695;29;20460;-79
2021/03/11 00:59:58;;;;;;;76.72;41.58;;;3.80;90.10;;;;;;2036423;28;20082;-80
2021/03/11 01:00:59;;;;;;;77.97;43.00;;;3.80;90.10;;;;;;2036082;28;20063;-79
2021/03/11 01:02:09;;;;;;;77.53;42.53;;;3.80;90.00;;;;;;2035798;29;20638;-78
2021/03/11 01:03:09;;;;;;;74.35;41.70;;;3.80;90.00;;;;;;2029759;29;20177;-76
2021/03/11 01:04:19;;;;;;;73.25;40.25;;;3.80;90.10;;;;;;2029891;29;20035;-78
2021/03/11 01:05:28;;;;;;;71.38;39.97;;;3.80;90.00;;;;;;2028800;28;20083;-77
2021/03/11 01:06:30;;;;;;;;;;;3.80;90.00;;;;;;2029589;28;20035;-78
2021/03/11 01:07:31;;;;;;;75.03;39.88;;;3.80;90.10;;;;;;2036248;29;19914;-77
2021/03/11 01:08:31;;;;;;;73.90;40.90;;;3.80;90.00;;;;;;2036263;29;20032;-77
2021/03/11 01:09:32;;;;;;;78.30;43.00;;;3.80;90.00;;;;;;2028053;29;20073;-77
2021/03/11 01:10:35;;;;;;;75.07;41.35;;;3.80;90.10;;;;;;2034580;29;20059;-79
2021/03/11 01:11:35;;;;;;;73.93;40.72;;;3.80;90.20;;;;;;2034869;29;20519;-76
2021/03/11 01:12:36;;;;;;;71.30;39.58;;;3.80;90.20;;;;;;2036059;29;20058;-79
2021/03/11 01:13:37;;;;;;;73.28;41.05;;;3.80;90.20;;;;;;2036014;28;20040;-78
2021/03/11 01:14:37;;;;;;;78.25;42.65;;;3.80;90.20;;;;;;2036535;28;20083;-77
2021/03/11 01:15:40;;;;;;;75.70;41.60;;;3.80;90.20;;;;;;2036113;28;20067;-77
2021/03/11 01:16:49;;;;;;;72.82;40.67;;;3.80;90.20;;;;;;2036439;29;20032;-79
2021/03/11 01:17:50;;;;;;;75.13;41.38;;;3.80;90.20;;;;;;2034903;29;20016;-78
2021/03/11 01:18:51;;;;;;;73.93;41.33;;;3.80;90.20;;;;;;2035731;29;20036;-80
2021/03/11 01:19:51;;;;;;;74.93;41.40;;;3.80;90.20;;;;;;2043424;29;20038;-78
2021/03/11 01:20:52;;;;;;;75.28;42.20;;;3.70;90.30;;;;;;2043790;29;20023;-78
2021/03/11 01:21:52;;;;;;;75.53;42.22;;;3.70;90.70;;;;;;2036679;28;20830;-78
2021/03/11 01:22:53;;;;;;;80.40;44.38;;;3.70;90.40;;;;;;2036718;28;20058;-78
2021/03/11 01:23:53;;;;;;;78.60;43.35;;;3.70;90.40;;;;;;2044121;28;20035;-77
2021/03/11 01:24:54;;;;;;;79.35;43.67;;;3.70;90.40;;;;;;2045181;29;20580;-78
2021/03/11 01:25:55;;;;;;;74.57;41.33;;;3.70;90.40;;;;;;2037853;29;20067;-78
2021/03/11 01:26:55;;;;;;;77.20;42.58;;;3.70;90.40;;;;;;2037478;28;20036;-78
2021/03/11 01:27:56;;;;;;;76.15;42.58;;;3.70;90.50;;;;;;2038765;28;20032;-77
2021/03/11 01:28:56;;;;;;;75.57;42.22;;;3.70;90.50;;;;;;2037942;28;20040;-77
2021/03/11 01:29:57;;;;;;;75.13;41.45;;;3.70;90.50;;;;;;2038031;28;20020;-77
2021/03/11 01:30:57;;;;;;;74.57;41.92;;;3.70;90.50;;;;;;2035024;28;20031;-77
2021/03/11 01:31:58;;;;;;;73.78;40.88;;;3.70;90.50;;;;;;2034915;28;20071;-77
2021/03/11 01:32:59;;;;;;;73.40;41.63;;;3.60;90.50;;;;;;2034892;28;20031;-77
2021/03/11 01:33:59;;;;;;;80.15;43.13;;;3.60;90.50;;;;;;2034781;29;20391;-79
2021/03/11 01:35:00;;;;;;;75.75;43.05;;;3.60;90.60;;;;;;2042053;28;20027;-79
2021/03/11 01:36:01;;;;;;;75.43;42.47;;;3.60;90.70;;;;;;2041783;28;20031;-78
2021/03/11 01:37:01;;;;;;;72.63;41.00;;;3.60;90.70;;;;;;2042838;28;20110;-78
2021/03/11 01:38:02;;;;;;;75.53;42.20;;;3.60;90.70;;;;;;2042084;29;20101;-80
2021/03/11 01:39:03;;;;;;;75.43;41.75;;;3.60;90.80;;;;;;2035700;29;20178;-79
2021/03/11 01:40:06;;;;;;;77.93;43.08;;;3.60;90.80;;;;;;2035874;29;20048;-76
2021/03/11 01:41:06;;;;;;;70.72;40.00;;;3.60;90.80;;;;;;2035972;29;20395;-77
2021/03/11 01:42:07;;;;;;;75.53;41.60;;;3.60;90.70;;;;;;2035749;28;20103;-78
2021/03/11 01:43:07;;;;;;;72.60;41.20;;;3.60;90.70;;;;;;2035696;28;20044;-77
2021/03/11 01:44:08;;;;;;;74.15;41.13;;;3.60;90.70;;;;;;2033007;28;20032;-79
2021/03/11 01:45:10;;;;;;;73.63;42.42;;;3.60;90.60;;;;;;2033753;29;20030;-73
2021/03/11 01:46:10;;;;;;;76.40;42.92;;;3.60;90.60;;;;;;2033366;29;20407;-77
2021/03/11 01:47:11;;;;;;;71.85;40.42;;;3.60;90.60;;;;;;2033224;28;20051;-76
2021/03/11 01:48:12;;;;;;;77.80;42.95;;;3.60;90.60;;;;;;2032614;29;20028;-76
2021/03/11 01:49:12;;;;;;;74.82;41.25;;;3.60;90.60;;;;;;2033174;29;20405;-77
2021/03/11 01:50:14;;;;;;;72.53;40.25;;;3.70;90.50;;;;;;2033602;28;20036;-77
2021/03/11 01:51:16;;;;;;;70.72;39.83;;;3.70;90.50;;;;;;2033742;29;20042;-77
2021/03/11 01:52:17;;;;;;;75.22;41.33;;;3.70;90.40;;;;;;2033562;29;20114;-76
2021/03/11 01:53:17;;;;;;;71.00;39.40;;;3.70;90.30;;;;;;2033147;29;20094;-79
2021/03/11 01:54:19;;;;;;;67.55;38.58;;;3.70;90.30;;;;;;2032739;28;20024;-76
2021/03/11 01:55:20;;;;;;;72.22;40.70;;;3.70;90.30;;;;;;2033057;29;20427;-78
2021/03/11 01:56:21;;;;;;;70.53;39.47;;;3.70;90.30;;;;;;2033085;29;20028;-76
2021/03/11 01:57:21;;;;;;;70.30;40.22;;;3.70;90.30;;;;;;2034069;29;20024;-76
2021/03/11 01:58:22;;;;;;;72.35;41.03;;;3.70;90.30;;;;;;2032095;28;20036;-78
2021/03/11 01:59:23;;;;;;;74.05;40.80;;;3.70;90.20;;;;;;2032621;29;20032;-78
2021/03/11 02:00:24;;;;;;;70.78;39.97;;;3.70;90.10;;;;;;2034612;29;20048;-78
2021/03/11 02:01:24;;;;;;;69.88;38.90;;;3.70;90.10;;;;;;2033216;29;20024;-78
2021/03/11 02:02:25;;;;;;;67.78;38.15;;;3.70;90.10;;;;;;2033355;28;20032;-77
2021/03/11 02:03:26;;;;;;;65.90;38.17;;;3.70;90.10;;;;;;2032844;28;20074;-76
2021/03/11 02:04:26;;;;;;;68.55;38.33;;;3.70;90.10;;;;;;2032867;29;20024;-77
2021/03/11 02:05:27;;;;;;;67.85;38.17;;;3.70;90.10;;;;;;2040980;29;20129;-78
2021/03/11 02:06:27;;;;;;;70.25;40.38;;;3.70;90.10;;;;;;2033312;28;20035;-77
2021/03/11 02:07:28;;;;;;;71.65;39.75;;;3.70;89.80;;;;;;2033154;28;20078;-76
2021/03/11 02:08:29;;;;;;;71.43;39.65;;;3.80;89.70;;;;;;2032515;28;20032;-76
2021/03/11 02:09:30;;;;;;;71.57;39.88;;;3.80;89.70;;;;;;2032395;29;20044;-76
2021/03/11 02:10:31;;;;;;;66.80;38.97;;;3.80;89.70;;;;;;2033942;28;20024;-78
2021/03/11 02:11:33;;;;;;;68.18;39.20;;;3.80;89.70;;;;;;2033189;29;20060;-76
2021/03/11 02:12:45;;;;;;;67.22;38.33;;;3.80;89.60;;;;;;2034145;28;20455;-76
2021/03/11 02:14:06;;;;;;;69.88;38.13;;;3.80;89.60;;;;;;2034767;29;20034;-78
2021/03/11 02:15:19;;;;;;;72.07;38.78;;;3.80;89.60;;;;;;2035576;29;20080;-78
2021/03/11 02:16:31;;;;;;;68.47;37.45;;;3.80;89.70;;;;;;2034648;29;20672;-78
2021/03/11 02:17:54;;;;;;;63.08;36.00;;;3.80;89.70;;;;;;2034887;29;20020;-78
2021/03/11 02:19:14;;;;;;;65.75;37.05;;;3.80;89.70;;;;;;2033168;29;20040;-78
2021/03/11 02:20:30;;;;;;;;;;;3.80;89.70;;;;;;2058657;28;20055;-77
2021/03/11 02:21:47;;;;;;;65.22;34.97;;;3.80;89.60;;;;;;2032942;29;19911;-77
2021/03/11 02:23:24;;;;;;;65.43;36.58;;;3.80;89.70;;;;;;2034342;29;20044;-76
2021/03/11 02:24:36;;;;;;;66.75;35.90;;;3.80;89.50;;;;;;2033807;28;20028;-77
2021/03/11 02:25:53;;;;;;;67.97;36.92;;;3.80;89.40;;;;;;2019301;29;20033;-77
2021/03/11 02:27:22;;;;;;;65.20;36.83;;;3.80;89.20;;;;;;2028410;29;20041;-76
2021/03/11 02:28:54;;;;;;;68.60;36.65;;;3.80;89.00;;;;;;2034475;29;20110;-76
2021/03/11 02:29:55;;;;;;;66.18;36.35;;;3.80;89.00;;;;;;2032473;28;20427;-76
2021/03/11 02:30:57;;;;;;;63.88;36.03;;;3.90;88.90;;;;;;2032456;29;20083;-75
2021/03/11 02:32:00;;;;;;;67.72;38.25;;;3.90;88.80;;;;;;2032756;28;20032;-76
2021/03/11 02:33:04;;;;;;;65.18;36.95;;;3.90;88.70;;;;;;2033270;29;20096;-76
2021/03/11 02:34:13;;;;;;;65.95;36.75;;;3.90;88.60;;;;;;2034182;29;20396;-76
2021/03/11 02:35:14;;;;;;;65.45;36.33;;;3.90;88.40;;;;;;2033782;29;20067;-76
2021/03/11 02:36:15;;;;;;;65.05;36.47;;;3.90;88.30;;;;;;2033683;29;20055;-76
2021/03/11 02:37:40;;;;;;;64.85;36.35;;;3.90;88.10;;;;;;2034085;28;20031;-76
2021/03/11 02:38:43;;;;;;;65.20;35.65;;;4.00;87.80;;;;;;2031481;28;20032;-76
2021/03/11 02:39:52;;;;;;;63.80;36.08;;;4.00;87.70;;;;;;2032613;29;20053;-76
2021/03/11 02:40:58;;;;;;;65.38;36.90;;;4.00;87.60;;;;;;2032324;28;20020;-76
2021/03/11 02:41:59;;;;;;;65.78;37.00;;;4.00;87.50;;;;;;2032815;29;20063;-76
2021/03/11 02:43:03;;;;;;;62.35;35.60;;;4.00;87.50;;;;;;2033207;29;20039;-77
2021/03/11 02:44:06;;;;;;;59.20;34.17;;;4.00;87.50;;;;;;2040648;29;20032;-77
2021/03/11 02:45:11;;;;;;;58.50;32.88;;;4.00;87.60;;;;;;2032648;28;20094;-77
2021/03/11 02:46:13;;;;;;;57.20;32.90;;;4.00;87.60;;;;;;2032892;29;20135;-77
2021/03/11 02:47:13;;;;;;;60.85;35.30;;;4.00;87.60;;;;;;2034036;29;20472;-77
2021/03/11 02:48:15;;;;;;;62.95;36.33;;;4.00;87.60;;;;;;2033889;28;20032;-77
2021/03/11 02:50:09;;;;;;;60.70;35.47;;;4.00;87.40;;;;;;2032109;29;20086;-77
2021/03/11 02:51:11;;;;;;;65.03;36.20;;;4.10;87.30;;;;;;2040550;28;20031;-77
2021/03/11 02:52:13;;;;;;;62.53;35.72;;;4.10;87.20;;;;;;2041005;29;20028;-77
2021/03/11 02:53:14;;;;;;;69.78;37.85;;;4.10;87.00;;;;;;2032677;29;20032;-77
2021/03/11 02:54:16;;;;;;;64.85;36.22;;;4.10;86.70;;;;;;2032925;29;20127;-77
2021/03/11 02:55:17;;;;;;;65.32;37.08;;;4.10;86.70;;;;;;2040215;29;20032;-77
2021/03/11 02:56:18;;;;;;;60.13;35.20;;;4.10;86.70;;;;;;2032104;28;20115;-77
2021/03/11 02:57:21;;;;;;;59.10;35.25;;;4.10;86.70;;;;;;2035480;29;20036;-77
2021/03/11 02:58:22;;;;;;;63.50;36.25;;;4.10;86.60;;;;;;2037976;29;20056;-77
2021/03/11 02:59:24;;;;;;;64.45;36.05;;;4.10;86.40;;;;;;2036357;29;20462;-77
2021/03/11 03:00:25;;;;;;;62.47;35.65;;;4.10;86.20;;;;;;2036992;29;20231;-78
2021/03/11 03:01:27;;;;;;;65.07;36.80;;;4.10;86.10;;;;;;2038014;29;20024;-77
2021/03/11 03:02:29;;;;;;;62.17;36.35;;;4.20;86.00;;;;;;2042310;29;20055;-77
2021/03/11 03:03:31;;;;;;;62.72;36.67;;;4.20;86.10;;;;;;2040622;29;20035;-77
2021/03/11 03:04:34;;;;;;;64.28;35.90;;;4.20;85.90;;;;;;2041217;29;20075;-77
2021/03/11 03:05:37;;;;;;;64.90;36.15;;;4.20;85.70;;;;;;2041101;29;20067;-77
2021/03/11 03:06:40;;;;;;;62.25;35.65;;;4.20;85.50;;;;;;2033746;29;20043;-77
2021/03/11 03:07:44;;;;;;;64.68;36.63;;;4.20;85.60;;;;;;2032667;29;20028;-77
2021/03/11 03:08:46;;;;;;;62.17;35.83;;;4.20;85.60;;;;;;2031916;29;20036;-77
2021/03/11 03:09:49;;;;;;;63.40;36.45;;;4.20;85.70;;;;;;2031193;29;20032;-77
2021/03/11 03:10:52;;;;;;;61.25;36.03;;;4.20;85.60;;;;;;2031647;29;20039;-76
2021/03/11 03:11:57;;;;;;;63.88;36.03;;;4.20;85.50;;;;;;2031646;29;20150;-76
2021/03/11 03:13:04;;;;;;;63.53;36.13;;;4.20;85.60;;;;;;2039410;29;20047;-76
2021/03/11 03:14:07;;;;;;;62.88;35.92;;;4.20;85.70;;;;;;2038763;29;20062;-76
2021/03/11 03:15:09;;;;;;;61.97;35.00;;;4.20;85.70;;;;;;2031996;28;20114;-76
2021/03/11 03:16:12;;;;;;;62.70;35.83;;;4.20;85.60;;;;;;2039489;29;20545;-76
2021/03/11 03:17:15;;;;;;;65.80;37.40;;;4.20;85.50;;;;;;2032222;29;20447;-76
2021/03/11 03:18:18;;;;;;;63.50;36.38;;;4.30;86.20;;;;;;2032267;29;20036;-75
2021/03/11 03:19:19;;;;;;;62.67;36.40;;;4.30;85.30;;;;;;2032033;29;20028;-76
2021/03/11 03:20:22;;;;;;;61.60;36.08;;;4.30;85.00;;;;;;2031444;28;20028;-76
2021/03/11 03:21:23;;;;;;;63.83;36.47;;;4.30;84.70;;;;;;2031429;29;20036;-76
2021/03/11 03:22:24;;;;;;;63.25;35.45;;;4.30;84.50;;;;;;2032085;29;20050;-76
2021/03/11 03:23:26;;;;;;;65.15;36.45;;;4.30;84.50;;;;;;2032152;28;20036;-76
2021/03/11 03:24:26;;;;;;;63.58;36.30;;;4.30;84.40;;;;;;2031459;28;20024;-76
2021/03/11 03:25:27;;;;;;;64.60;36.50;;;4.40;84.30;;;;;;2031646;29;20107;-76
2021/03/11 03:26:28;;;;;;;63.47;36.70;;;4.40;84.20;;;;;;2032314;29;20036;-75
2021/03/11 03:27:28;;;;;;;62.67;36.00;;;4.40;84.10;;;;;;2032197;28;20513;-76
2021/03/11 03:28:29;;;;;;;61.20;34.97;;;4.40;84.10;;;;;;2031680;28;20032;-76
2021/03/11 03:29:29;;;;;;;62.95;36.28;;;4.40;84.10;;;;;;2031479;29;20039;-76
2021/03/11 03:30:30;;;;;;;58.97;33.90;;;4.40;83.90;;;;;;2031973;29;20033;-76
2021/03/11 03:31:32;;;;;;;57.72;33.28;;;4.40;83.90;;;;;;2032078;29;20039;-76
2021/03/11 03:32:33;;;;;;;66.07;36.17;;;4.40;83.90;;;;;;2032214;29;20462;-76
2021/03/11 03:33:34;;;;;;;62.50;36.28;;;4.50;83.50;;;;;;2032329;28;20040;-76
2021/03/11 03:34:35;;;;;;;61.72;35.10;;;4.50;84.00;;;;;;2032271;29;20016;-76
2021/03/11 03:35:35;;;;;;;62.03;35.72;;;4.50;83.30;;;;;;2039544;28;20493;-76
2021/03/11 03:36:36;;;;;;;61.63;35.85;;;4.50;83.20;;;;;;2031362;28;20029;-76
2021/03/11 03:37:37;;;;;;;63.22;36.38;;;4.50;83.20;;;;;;2023726;29;20453;-76
2021/03/11 03:38:38;;;;;;;63.30;35.85;;;4.50;83.10;;;;;;2031671;29;20028;-76
2021/03/11 03:39:39;;;;;;;62.65;35.45;;;4.60;83.10;;;;;;2039176;29;20442;-76
2021/03/11 03:40:40;;;;;;;59.85;35.30;;;4.50;83.20;;;;;;2032047;28;20107;-76
2021/03/11 03:41:50;;;;;;;62.58;35.78;;;4.60;83.50;;;;;;2041843;29;20553;-76
2021/03/11 03:42:58;;;;;;;64.03;35.95;;;4.50;82.90;;;;;;2043315;29;20047;-76
2021/03/11 03:43:59;;;;;;;61.67;34.17;;;4.60;82.80;;;;;;2043492;29;20032;-76
2021/03/11 03:45:03;;;;;;;61.25;34.78;;;4.60;82.70;;;;;;2040764;29;20511;-77
2021/03/11 03:46:06;;;;;;;65.20;36.35;;;4.60;82.70;;;;;;2032252;29;20032;-77
2021/03/11 03:47:09;;;;;;;63.33;35.92;;;4.60;82.50;;;;;;2032258;29;20094;-77
2021/03/11 03:48:15;;;;;;;63.08;35.13;;;4.60;82.40;;;;;;2031615;28;20114;-77
2021/03/11 03:49:17;;;;;;;62.00;33.85;;;4.70;82.50;;;;;;2031372;29;20407;-77
2021/03/11 03:50:19;;;;;;;59.28;33.88;;;4.60;82.40;;;;;;2032132;29;20059;-76
2021/03/11 03:51:36;;;;;;;58.10;34.00;;;4.70;82.50;;;;;;2039352;29;20024;-77
2021/03/11 03:52:40;;;;;;;59.15;33.78;;;4.70;82.30;;;;;;2037762;29;20019;-77
2021/03/11 03:53:46;;;;;;;62.30;34.22;;;4.70;82.30;;;;;;2032872;29;20410;-77
2021/03/11 03:54:48;;;;;;;62.33;34.38;;;4.70;82.20;;;;;;2040247;29;20028;-77
2021/03/11 03:55:56;;;;;;;61.67;34.65;;;4.70;82.40;;;;;;2039985;29;20075;-77
2021/03/11 03:57:15;;;;;;;60.47;34.67;;;4.70;82.50;;;;;;2032352;29;20032;-77
2021/03/11 03:58:17;;;;;;;62.15;35.35;;;4.70;82.40;;;;;;2032172;29;20032;-77
2021/03/11 03:59:22;;;;;;;61.97;33.97;;;4.70;82.50;;;;;;2032028;29;20430;-77
2021/03/11 04:00:24;;;;;;;56.42;33.00;;;4.70;82.30;;;;;;2032132;29;20027;-77
2021/03/11 04:01:29;;;;;;;60.03;34.28;;;4.70;82.30;;;;;;2039546;29;20078;-77
2021/03/11 04:02:29;;;;;;;64.63;35.53;;;4.70;82.20;;;;;;2038914;29;20114;-77
2021/03/11 04:03:32;;;;;;;65.82;36.85;;;4.70;82.40;;;;;;2032048;29;20035;-77
2021/03/11 04:04:37;;;;;;;59.22;34.15;;;4.80;82.30;;;;;;2032220;29;20028;-77
2021/03/11 04:05:39;;;;;;;58.20;33.95;;;4.70;82.10;;;;;;2033360;29;20028;-77
2021/03/11 04:06:41;;;;;;;60.65;34.17;;;4.70;82.10;;;;;;2032928;29;20399;-78
2021/03/11 04:07:45;;;;;;;56.63;32.70;;;4.80;82.20;;;;;;2031995;29;20040;-77
2021/03/11 04:08:47;;;;;;;58.35;33.15;;;4.80;82.20;;;;;;2031148;29;20067;-77
2021/03/11 04:09:49;;;;;;;57.95;34.28;;;4.80;82.00;;;;;;2032677;29;20392;-76
2021/03/11 04:10:49;;;;;;;57.92;34.15;;;4.80;82.00;;;;;;2039230;29;20035;-75
2021/03/11 04:11:51;;;;;;;58.15;34.15;;;4.80;82.00;;;;;;2039499;29;20448;-75
2021/03/11 04:12:52;;;;;;;55.97;32.53;;;4.80;81.80;;;;;;2032169;29;20047;-75
2021/03/11 04:13:54;;;;;;;58.60;33.75;;;4.90;81.70;;;;;;2032153;29;20555;-75
2021/03/11 04:14:55;;;;;;;57.90;32.72;;;4.90;81.70;;;;;;2031523;28;20032;-75
2021/03/11 04:15:56;;;;;;;59.33;34.25;;;4.90;81.70;;;;;;2015889;29;20037;-75
2021/03/11 04:16:57;;;;;;;56.53;31.88;;;4.90;81.80;;;;;;2023599;29;20075;-75
2021/03/11 04:17:58;;;;;;;55.92;32.72;;;4.90;81.70;;;;;;2031512;29;20067;-75
2021/03/11 04:19:00;;;;;;;56.58;32.88;;;4.80;81.90;;;;;;2031268;29;20032;-75
2021/03/11 04:20:05;;;;;;;58.92;34.42;;;4.90;82.00;;;;;;2032216;29;20054;-75
2021/03/11 04:21:07;;;;;;;56.83;33.75;;;4.80;82.00;;;;;;2031791;29;20040;-75
2021/03/11 04:22:08;;;;;;;57.95;33.25;;;4.80;82.00;;;;;;2032975;29;20036;-75
2021/03/11 04:23:09;;;;;;;55.03;32.65;;;4.80;82.10;;;;;;2041007;29;20429;-76
2021/03/11 04:24:13;;;;;;;53.85;32.50;;;4.90;82.10;;;;;;2041109;29;20178;-76
2021/03/11 04:25:14;;;;;;;55.67;32.55;;;4.90;82.00;;;;;;2033489;29;20107;-75
2021/03/11 04:26:14;;;;;;;55.72;33.17;;;4.90;81.90;;;;;;2033481;29;20471;-76
2021/03/11 04:27:15;;;;;;;57.20;33.97;;;4.90;81.80;;;;;;2033639;28;20119;-75
2021/03/11 04:28:16;;;;;;;58.65;33.70;;;4.90;81.80;;;;;;2033436;28;20050;-76
2021/03/11 04:29:17;;;;;;;61.20;34.70;;;4.90;81.80;;;;;;2032951;28;20035;-76
2021/03/11 04:30:18;;;;;;;59.92;34.30;;;5.00;82.10;;;;;;2040533;28;20102;-76
2021/03/11 04:31:19;;;;;;;58.58;33.65;;;5.00;82.00;;;;;;2040439;29;20068;-76
2021/03/11 04:32:21;;;;;;;56.58;33.38;;;5.00;82.20;;;;;;2040506;29;20082;-76
2021/03/11 04:33:23;;;;;;;59.08;33.47;;;5.00;82.30;;;;;;2040509;29;20024;-76
2021/03/11 04:34:24;;;;;;;57.72;33.22;;;5.10;82.10;;;;;;2040580;29;20032;-76
2021/03/11 04:35:25;;;;;;;58.88;33.25;;;5.10;82.30;;;;;;2040444;29;20036;-76
2021/03/11 04:36:26;;;;;;;60.97;34.30;;;5.10;82.20;;;;;;2033240;28;20032;-76
2021/03/11 04:37:27;;;;;;;57.05;34.10;;;5.10;82.30;;;;;;2032792;29;20106;-76
2021/03/11 04:38:28;;;;;;;54.83;32.40;;;5.10;82.50;;;;;;2024944;29;20068;-76
2021/03/11 04:39:29;;;;;;;57.00;33.05;;;5.10;82.40;;;;;;2032324;29;20031;-76
2021/03/11 04:40:30;;;;;;;60.30;34.70;;;5.10;82.60;;;;;;2033160;29;20024;-76
2021/03/11 04:41:31;;;;;;;58.15;33.78;;;5.10;82.90;;;;;;2033227;29;20424;-76
2021/03/11 04:42:36;;;;;;;59.13;34.85;;;5.10;83.10;;;;;;2033448;29;20032;-76
2021/03/11 04:43:39;;;;;;;59.03;34.45;;;5.10;83.30;;;;;;2033041;29;20028;-76
2021/03/11 04:44:41;;;;;;;61.65;35.80;;;5.10;83.50;;;;;;2033368;29;20028;-76
2021/03/11 04:45:44;;;;;;;60.72;35.15;;;5.10;84.00;;;;;;2033289;29;20024;-76
2021/03/11 04:46:45;;;;;;;63.95;37.10;;;5.10;84.00;;;;;;2033350;29;20086;-76
2021/03/11 04:47:47;;;;;;;65.40;37.80;;;5.10;84.30;;;;;;2033451;29;20499;-76
2021/03/11 04:48:49;;;;;;;65.47;37.55;;;5.10;84.50;;;;;;2033114;29;20399;-76
2021/03/11 04:49:50;;;;;;;66.32;37.47;;;5.10;84.40;;;;;;2032673;29;20127;-76
2021/03/11 04:50:51;;;;;;;64.80;35.75;;;5.00;84.60;;;;;;2031928;29;20064;-76
2021/03/11 04:51:52;;;;;;;61.97;36.45;;;5.00;84.70;;;;;;2032960;29;20042;-77
2021/03/11 04:52:54;;;;;;;63.65;35.63;;;5.00;85.00;;;;;;2033274;29;20035;-76
2021/03/11 04:53:55;;;;;;;63.22;36.67;;;5.00;85.10;;;;;;2033422;28;20651;-77
2021/03/11 04:54:56;;;;;;;67.85;38.35;;;5.00;85.40;;;;;;2040383;29;20106;-76
2021/03/11 04:55:58;;;;;;;63.50;36.97;;;5.00;85.30;;;;;;2032492;29;20024;-76
2021/03/11 04:57:01;;;;;;;64.65;36.08;;;4.90;85.30;;;;;;2033048;29;20162;-76
2021/03/11 04:58:02;;;;;;;67.60;37.90;;;4.90;85.50;;;;;;2040403;29;20050;-76
2021/03/11 04:59:03;;;;;;;63.85;36.92;;;4.90;85.50;;;;;;2040200;29;20028;-76
2021/03/11 05:00:05;;;;;;;69.78;39.40;;;4.90;86.30;;;;;;2033142;29;20028;-76
2021/03/11 05:01:11;;;;;;;63.50;37.22;;;4.90;85.80;;;;;;2032425;29;20032;-76
2021/03/11 05:02:12;;;;;;;67.80;38.88;;;4.90;86.10;;;;;;2032647;29;20539;-76
2021/03/11 05:03:14;;;;;;;64.40;38.33;;;4.90;86.30;;;;;;2033490;28;20040;-76
2021/03/11 05:04:15;;;;;;;64.30;37.80;;;4.80;86.10;;;;;;2033084;29;20476;-76
2021/03/11 05:05:34;;;;;;;61.75;36.20;;;4.80;86.20;;;;;;2033099;29;20036;-76
2021/03/11 05:06:34;;;;;;;65.20;37.80;;;4.80;86.40;;;;;;2040356;29;20108;-76
2021/03/11 05:07:35;;;;;;;65.90;37.60;;;4.80;86.50;;;;;;2040686;29;20043;-76
2021/03/11 05:08:35;;;;;;;65.78;37.63;;;4.80;87.30;;;;;;2032461;29;20044;-76
2021/03/11 05:09:36;;;;;;;66.75;37.38;;;4.80;86.80;;;;;;2024243;29;20040;-76
2021/03/11 05:10:38;;;;;;;67.22;38.47;;;4.80;86.90;;;;;;2024449;29;20099;-76
2021/03/11 05:11:40;;;;;;;68.50;38.95;;;4.80;86.90;;;;;;2024700;29;20043;-76
2021/03/11 05:12:41;;;;;;;62.88;38.50;;;4.80;86.70;;;;;;2032216;29;20056;-76
2021/03/11 05:13:42;;;;;;;68.80;39.30;;;4.80;86.70;;;;;;2032805;28;20036;-76
2021/03/11 05:14:42;;;;;;;65.32;38.33;;;4.80;86.60;;;;;;2040194;28;20731;-77
2021/03/11 05:15:43;;;;;;;69.28;40.08;;;4.80;87.00;;;;;;2040432;29;20086;-76
2021/03/11 05:16:43;;;;;;;68.60;39.85;;;4.70;87.10;;;;;;2033090;29;20024;-76
2021/03/11 05:17:44;;;;;;;66.55;38.90;;;4.70;87.60;;;;;;2040547;28;20035;-76
2021/03/11 05:18:45;;;;;;;65.05;38.75;;;4.70;87.40;;;;;;2040011;29;20086;-76
2021/03/11 05:19:45;;;;;;;64.80;37.90;;;4.70;87.50;;;;;;2033110;29;20111;-76
2021/03/11 05:20:46;;;;;;;67.13;38.80;;;4.70;87.40;;;;;;2040068;28;20506;-76
2021/03/11 05:21:46;;;;;;;64.75;38.42;;;4.70;87.60;;;;;;2040385;29;20126;-76
2021/03/11 05:22:47;;;;;;;65.28;38.72;;;4.70;87.40;;;;;;2032509;29;20503;-76
2021/03/11 05:23:48;;;;;;;65.63;38.53;;;4.70;87.40;;;;;;2041006;29;20067;-75